Time;durP1;ratioP1;P1;durP2;ratioP2;P2;SDS_P1;SDS_P2;PMS_P1;PMS_P2;Temp;Humidity;BMP_temperature;BMP_pressure;BME280_temperature;BME280_humidity;BME280_pressure;Samples;Min_cycle;Max_cycle;Signal;HPM_P1;HPM_P2
2021/07/09 00:02:01;;;;;;;1.80;1.07;;;16.30;99.90;;;;;;5050939;28;20420;-68
2021/07/09 00:04:28;;;;;;;2.23;0.90;;;16.20;99.90;;;;;;5046352;28;20446;-68
2021/07/09 00:06:55;;;;;;;2.67;0.97;;;16.30;99.90;;;;;;5036472;28;20449;-67
2021/07/09 00:09:23;;;;;;;1.73;0.73;;;16.30;99.90;;;;;;5051282;28;20993;-68
2021/07/09 00:11:53;;;;;;;2.03;0.80;;;16.20;99.90;;;;;;5049945;28;20487;-69
2021/07/09 00:14:23;;;;;;;2.40;0.70;;;16.20;99.90;;;;;;5033715;28;20859;-68
2021/07/09 00:16:51;;;;;;;1.87;0.97;;;16.20;99.90;;;;;;5033061;28;20504;-68
2021/07/09 00:19:18;;;;;;;3.27;0.60;;;16.20;99.90;;;;;;5033442;28;20529;-68
2021/07/09 00:21:46;;;;;;;2.00;0.90;;;16.20;99.90;;;;;;5033484;28;20873;-68
2021/07/09 00:24:13;;;;;;;3.80;1.10;;;16.30;99.90;;;;;;5051419;28;20437;-68
2021/07/09 00:26:41;;;;;;;2.03;0.97;;;16.30;99.90;;;;;;5053365;28;20798;-68
2021/07/09 00:29:10;;;;;;;1.60;0.90;;;16.20;99.90;;;;;;5035724;28;20441;-68
2021/07/09 00:31:37;;;;;;;1.80;0.90;;;16.20;99.90;;;;;;5033200;28;20497;-68
2021/07/09 00:34:06;;;;;;;3.23;1.07;;;16.20;99.90;;;;;;5048876;28;20448;-68
2021/07/09 00:36:34;;;;;;;3.03;1.00;;;16.20;99.90;;;;;;5038619;28;20450;-69
2021/07/09 00:39:01;;;;;;;3.90;0.83;;;16.30;99.90;;;;;;5033167;28;20437;-68
2021/07/09 00:41:29;;;;;;;1.87;1.00;;;16.30;99.90;;;;;;5045665;28;20460;-68
2021/07/09 00:43:56;;;;;;;1.93;0.97;;;16.30;99.90;;;;;;5052825;28;20437;-67
2021/07/09 00:46:36;;;;;;;1.70;0.80;;;16.40;99.90;;;;;;5040596;28;20541;-69
2021/07/09 00:49:03;;;;;;;2.90;1.10;;;16.40;99.90;;;;;;5032890;28;20434;-68
2021/07/09 00:51:30;;;;;;;4.53;2.00;;;16.40;99.90;;;;;;5044452;28;20469;-68
2021/07/09 00:53:58;;;;;;;2.07;1.20;;;16.50;99.90;;;;;;5043726;28;20472;-68
2021/07/09 00:56:25;;;;;;;2.20;1.30;;;16.50;99.90;;;;;;5032828;28;20468;-68
2021/07/09 00:58:54;;;;;;;1.80;1.00;;;16.50;99.90;;;;;;5039071;28;20429;-69
2021/07/09 01:01:22;;;;;;;1.87;0.80;;;16.50;99.90;;;;;;5052588;28;20494;-68
2021/07/09 01:03:50;;;;;;;1.60;0.80;;;16.50;99.90;;;;;;5045863;28;20848;-68
2021/07/09 01:06:17;;;;;;;1.83;0.90;;;16.50;99.90;;;;;;5041870;28;20528;-68
2021/07/09 01:08:45;;;;;;;3.20;1.00;;;16.60;99.90;;;;;;5052641;28;20443;-68
2021/07/09 01:11:12;;;;;;;2.63;0.70;;;16.60;99.90;;;;;;5048205;28;20856;-68
2021/07/09 01:13:41;;;;;;;1.60;0.80;;;16.60;99.90;;;;;;5032511;28;20438;-67
2021/07/09 01:16:08;;;;;;;3.20;0.80;;;16.50;99.90;;;;;;5041486;28;20852;-69
2021/07/09 01:18:36;;;;;;;2.00;0.80;;;16.50;99.90;;;;;;5050710;28;20433;-70
2021/07/09 01:21:08;;;;;;;2.00;1.10;;;16.40;99.90;;;;;;5052538;28;20433;-69
2021/07/09 01:23:38;;;;;;;1.93;1.10;;;16.40;99.90;;;;;;5047149;28;20442;-69
2021/07/09 01:26:08;;;;;;;1.77;0.80;;;16.50;99.90;;;;;;5032466;28;20932;-69
2021/07/09 01:28:36;;;;;;;1.70;1.10;;;16.50;99.90;;;;;;5033329;28;20430;-69
2021/07/09 01:31:03;;;;;;;1.80;1.00;;;16.50;99.90;;;;;;5032589;28;20873;-69
2021/07/09 01:33:31;;;;;;;2.33;1.13;;;16.60;99.90;;;;;;5034827;28;20484;-69
2021/07/09 01:35:58;;;;;;;1.70;0.87;;;16.60;99.90;;;;;;5052380;28;20510;-69
2021/07/09 01:38:25;;;;;;;1.97;0.90;;;16.60;99.90;;;;;;5049639;28;20839;-69
2021/07/09 01:40:54;;;;;;;2.33;1.17;;;16.50;99.90;;;;;;5032361;28;20508;-69
2021/07/09 01:43:24;;;;;;;1.80;0.90;;;16.50;99.90;;;;;;5033392;28;20955;-69
2021/07/09 01:45:51;;;;;;;1.80;0.80;;;16.50;99.90;;;;;;5052296;28;20441;-69
2021/07/09 01:48:23;;;;;;;1.77;0.90;;;16.50;99.90;;;;;;5050443;28;20794;-69
2021/07/09 01:50:50;;;;;;;1.70;0.80;;;16.50;99.90;;;;;;5032327;28;20475;-69
2021/07/09 01:53:17;;;;;;;1.50;0.63;;;16.50;99.90;;;;;;5037755;28;20477;-69
2021/07/09 01:55:48;;;;;;;1.70;0.80;;;16.50;99.90;;;;;;5052382;28;20464;-69
2021/07/09 01:58:14;;;;;;;1.70;0.70;;;16.50;99.90;;;;;;5046047;28;20468;-69
2021/07/09 02:00:43;;;;;;;2.20;0.70;;;16.40;99.90;;;;;;5032388;28;20871;-69
2021/07/09 02:03:11;;;;;;;1.83;0.50;;;16.40;99.90;;;;;;5035489;28;21267;-69
2021/07/09 02:05:38;;;;;;;1.30;0.50;;;16.30;99.90;;;;;;5052136;28;20448;-69
2021/07/09 02:08:06;;;;;;;1.33;0.50;;;16.30;99.90;;;;;;5048544;28;20430;-70
2021/07/09 02:10:36;;;;;;;1.33;0.50;;;16.30;99.80;;;;;;5033592;28;20464;-69
2021/07/09 02:13:04;;;;;;;1.47;0.60;;;16.30;99.90;;;;;;5037841;28;21009;-69
2021/07/09 02:15:34;;;;;;;1.67;0.67;;;16.30;99.90;;;;;;5055709;28;20440;-69
2021/07/09 02:18:03;;;;;;;2.50;1.00;;;16.20;99.40;;;;;;5053313;28;20506;-69
2021/07/09 02:20:30;;;;;;;1.70;0.67;;;16.20;99.00;;;;;;5035804;28;20445;-69
2021/07/09 02:22:59;;;;;;;1.50;0.50;;;16.20;99.20;;;;;;5040196;28;20441;-69
2021/07/09 02:25:27;;;;;;;2.60;0.60;;;16.20;99.70;;;;;;5055827;28;20506;-69
2021/07/09 02:27:56;;;;;;;1.77;0.70;;;16.10;99.50;;;;;;5051409;28;20732;-69
2021/07/09 02:30:25;;;;;;;1.73;0.50;;;16.10;98.90;;;;;;5035725;28;20437;-69
2021/07/09 02:32:52;;;;;;;2.73;0.60;;;16.00;98.20;;;;;;5035431;28;20485;-69
2021/07/09 02:35:23;;;;;;;2.60;0.60;;;16.00;98.00;;;;;;5036709;28;20425;-70
2021/07/09 02:37:54;;;;;;;1.50;0.60;;;16.00;98.10;;;;;;5052010;28;20430;-71
2021/07/09 02:40:30;;;;;;;2.57;0.60;;;16.00;98.30;;;;;;5037371;28;20966;-69
2021/07/09 02:42:59;;;;;;;1.50;0.60;;;16.00;98.30;;;;;;5055353;28;20443;-69
2021/07/09 02:45:27;;;;;;;1.30;0.60;;;15.90;98.00;;;;;;5053563;28;20448;-69
2021/07/09 02:47:54;;;;;;;1.40;0.60;;;15.90;97.60;;;;;;5038255;28;20433;-69
2021/07/09 02:50:24;;;;;;;1.40;0.60;;;15.80;97.80;;;;;;5055047;28;20436;-71
2021/07/09 02:52:52;;;;;;;1.60;0.60;;;15.80;97.80;;;;;;5035307;28;20516;-69
2021/07/09 02:55:22;;;;;;;1.70;0.70;;;15.80;98.30;;;;;;5035232;28;21010;-69
2021/07/09 02:57:49;;;;;;;1.80;0.60;;;15.80;97.60;;;;;;5051013;28;21406;-68
2021/07/09 03:00:19;;;;;;;1.30;0.50;;;15.70;97.30;;;;;;5035127;28;20437;-69
2021/07/09 03:02:47;;;;;;;1.37;0.53;;;15.70;97.70;;;;;;5054005;28;20433;-69
2021/07/09 03:05:14;;;;;;;1.73;0.63;;;15.70;97.40;;;;;;5054908;28;20472;-68
2021/07/09 03:07:42;;;;;;;2.90;0.70;;;15.70;97.90;;;;;;5037500;28;21065;-69
2021/07/09 03:10:12;;;;;;;1.40;0.60;;;15.70;97.80;;;;;;5054985;28;20490;-69
2021/07/09 03:12:40;;;;;;;2.60;0.60;;;15.70;97.80;;;;;;5037264;28;20547;-69
2021/07/09 03:15:13;;;;;;;1.30;0.50;;;15.70;97.70;;;;;;5034709;28;20460;-69
2021/07/09 03:17:42;;;;;;;1.33;0.50;;;15.70;97.70;;;;;;5049686;28;20480;-69
2021/07/09 03:20:12;;;;;;;2.13;0.57;;;15.60;97.80;;;;;;5034660;28;20465;-69
2021/07/09 03:22:40;;;;;;;1.30;0.50;;;15.60;98.30;;;;;;5048978;28;20440;-69
2021/07/09 03:25:10;;;;;;;5.30;0.67;;;15.70;98.50;;;;;;5054550;28;20530;-69
2021/07/09 03:27:37;;;;;;;1.40;0.50;;;15.60;98.30;;;;;;5038895;28;20484;-69
2021/07/09 03:30:05;;;;;;;1.37;0.53;;;15.60;98.30;;;;;;5034558;28;20445;-69
2021/07/09 03:32:32;;;;;;;1.50;0.60;;;15.60;98.20;;;;;;5034019;28;20474;-69
2021/07/09 03:34:59;;;;;;;1.30;0.50;;;15.60;98.30;;;;;;5034584;28;20461;-69
2021/07/09 03:37:26;;;;;;;1.30;0.50;;;15.60;98.10;;;;;;5050416;28;20469;-68
2021/07/09 03:39:55;;;;;;;1.40;0.50;;;15.60;98.40;;;;;;5035771;28;20537;-69
2021/07/09 03:42:25;;;;;;;1.43;0.60;;;15.60;98.40;;;;;;5049702;28;20436;-69
2021/07/09 03:44:52;;;;;;;3.03;0.70;;;15.60;98.50;;;;;;5054166;28;20444;-69
2021/07/09 03:47:20;;;;;;;2.23;1.00;;;15.60;98.40;;;;;;5039222;28;20844;-69
2021/07/09 03:49:47;;;;;;;1.50;0.70;;;15.60;98.70;;;;;;5051127;28;20481;-68
2021/07/09 03:52:14;;;;;;;1.50;0.57;;;15.60;98.30;;;;;;5040084;28;20442;-69
2021/07/09 03:54:42;;;;;;;1.30;0.50;;;15.50;98.10;;;;;;5034097;28;20449;-68
2021/07/09 03:57:09;;;;;;;1.60;0.60;;;15.50;98.60;;;;;;5045686;28;20440;-68
2021/07/09 03:59:37;;;;;;;1.60;0.60;;;15.50;98.30;;;;;;5037906;28;20484;-69
2021/07/09 04:02:04;;;;;;;1.30;0.50;;;15.50;98.60;;;;;;5044473;28;20444;-68
2021/07/09 04:04:33;;;;;;;1.30;0.50;;;15.50;98.50;;;;;;5054026;28;20768;-69
2021/07/09 04:07:00;;;;;;;1.40;0.60;;;15.50;98.40;;;;;;5043753;28;20512;-69
2021/07/09 04:09:27;;;;;;;1.50;0.60;;;15.50;98.50;;;;;;5047771;28;20508;-69
2021/07/09 04:11:54;;;;;;;1.40;0.57;;;15.40;98.40;;;;;;5045085;28;20487;-68
2021/07/09 04:14:26;;;;;;;1.33;0.60;;;15.40;98.50;;;;;;5033736;28;20532;-69
2021/07/09 04:16:54;;;;;;;1.40;0.50;;;15.50;98.60;;;;;;5040696;28;20507;-68
2021/07/09 04:19:21;;;;;;;1.37;0.50;;;15.40;98.70;;;;;;5040620;28;20495;-68
2021/07/09 04:21:48;;;;;;;2.17;0.57;;;15.30;98.80;;;;;;5040231;28;20820;-68
2021/07/09 04:24:17;;;;;;;1.40;0.60;;;15.30;98.80;;;;;;5053610;28;20444;-68
2021/07/09 04:26:44;;;;;;;1.70;0.80;;;15.40;99.30;;;;;;5047830;28;20500;-68
2021/07/09 04:29:11;;;;;;;1.40;0.70;;;15.50;99.10;;;;;;5044535;28;20440;-69
2021/07/09 04:31:38;;;;;;;1.60;0.87;;;15.60;98.90;;;;;;5048909;28;20466;-68
2021/07/09 04:34:07;;;;;;;2.30;0.87;;;15.70;99.20;;;;;;5032603;28;20485;-68
2021/07/09 04:36:34;;;;;;;1.43;0.60;;;15.80;98.60;;;;;;5034822;28;20437;-69
2021/07/09 04:39:01;;;;;;;2.37;0.63;;;15.90;98.70;;;;;;5049930;28;20502;-68
2021/07/09 04:41:28;;;;;;;1.40;0.60;;;15.90;98.00;;;;;;5050872;28;20444;-69
2021/07/09 04:43:56;;;;;;;2.60;0.90;;;16.00;98.30;;;;;;5053232;28;20472;-69
2021/07/09 04:46:23;;;;;;;1.70;0.73;;;16.10;98.40;;;;;;5035069;28;20444;-69
2021/07/09 04:48:50;;;;;;;1.40;0.60;;;16.10;98.20;;;;;;5031023;28;20470;-69
2021/07/09 04:51:20;;;;;;;2.80;0.80;;;16.20;98.20;;;;;;5032716;28;20437;-69
2021/07/09 04:53:47;;;;;;;1.57;0.67;;;16.30;98.40;;;;;;5032784;28;20551;-69
2021/07/09 04:56:15;;;;;;;1.93;1.13;;;16.30;97.80;;;;;;5032814;28;20426;-69
2021/07/09 04:58:42;;;;;;;1.50;0.73;;;16.30;97.80;;;;;;5032520;28;20446;-69
2021/07/09 05:01:12;;;;;;;1.57;0.63;;;16.40;97.50;;;;;;5032199;28;20446;-68
2021/07/09 05:03:40;;;;;;;1.40;0.60;;;16.50;97.30;;;;;;5032311;28;20529;-70
2021/07/09 05:06:08;;;;;;;2.03;0.63;;;16.50;97.50;;;;;;5032622;28;20473;-69
2021/07/09 05:08:37;;;;;;;1.70;0.70;;;16.60;97.70;;;;;;5040718;28;20462;-69
2021/07/09 05:11:04;;;;;;;1.50;0.60;;;16.70;97.10;;;;;;5032495;28;20441;-69
2021/07/09 05:13:31;;;;;;;1.40;0.50;;;16.70;97.10;;;;;;5032259;28;20477;-70
2021/07/09 05:16:00;;;;;;;1.60;0.50;;;16.70;96.50;;;;;;5036116;28;20461;-69
2021/07/09 05:18:28;;;;;;;1.50;0.50;;;16.70;96.30;;;;;;5039084;28;20488;-69
2021/07/09 05:21:01;;;;;;;1.67;0.70;;;16.80;96.50;;;;;;5050042;28;20437;-69
2021/07/09 05:23:28;;;;;;;1.50;0.73;;;16.80;96.60;;;;;;5036083;28;20839;-69
2021/07/09 05:26:05;;;;;;;1.57;0.63;;;16.80;96.30;;;;;;5028970;28;20873;-70
2021/07/09 05:28:34;;;;;;;2.23;0.70;;;16.80;96.50;;;;;;5044981;28;20440;-70
2021/07/09 05:31:05;;;;;;;1.70;0.70;;;16.90;96.50;;;;;;5050056;28;20437;-69
2021/07/09 05:33:39;;;;;;;1.50;0.60;;;16.90;96.40;;;;;;5048767;28;20481;-70
2021/07/09 05:36:06;;;;;;;1.50;0.60;;;16.90;96.10;;;;;;5032482;28;20460;-68
2021/07/09 05:38:38;;;;;;;1.37;0.50;;;16.90;96.20;;;;;;5039310;28;20429;-69
2021/07/09 05:41:09;;;;;;;1.43;0.60;;;16.90;96.00;;;;;;5049982;28;20938;-69
2021/07/09 05:43:36;;;;;;;1.30;0.50;;;16.90;95.70;;;;;;5048282;28;22409;-69
2021/07/09 05:46:08;;;;;;;1.47;0.70;;;16.90;95.40;;;;;;5048937;28;20480;-70
2021/07/09 05:48:36;;;;;;;2.27;0.50;;;16.90;95.90;;;;;;5040560;28;20468;-69
2021/07/09 05:51:05;;;;;;;1.70;0.53;;;17.00;96.40;;;;;;5053617;28;20440;-69
2021/07/09 05:53:35;;;;;;;1.50;0.57;;;17.00;95.90;;;;;;5052447;28;20526;-69
2021/07/09 05:56:03;;;;;;;1.40;0.53;;;17.00;96.00;;;;;;5053239;28;20918;-68
2021/07/09 05:58:31;;;;;;;1.50;0.60;;;17.10;95.70;;;;;;5037694;28;20445;-69
2021/07/09 06:00:58;;;;;;;2.47;0.70;;;17.10;96.00;;;;;;5035906;28;20469;-70
2021/07/09 06:03:25;;;;;;;2.37;1.23;;;17.10;95.80;;;;;;5037994;28;20462;-70
2021/07/09 06:05:53;;;;;;;2.40;1.20;;;17.10;95.80;;;;;;5036303;28;20493;-69
2021/07/09 06:08:23;;;;;;;2.77;1.37;;;17.00;95.70;;;;;;5035536;28;20438;-69
2021/07/09 06:10:50;;;;;;;1.70;1.00;;;16.90;96.00;;;;;;5035665;28;20460;-70
2021/07/09 06:13:19;;;;;;;1.53;0.77;;;16.90;95.80;;;;;;5041679;28;20875;-69
2021/07/09 06:15:47;;;;;;;2.03;0.80;;;16.80;95.80;;;;;;5052459;28;20492;-74
2021/07/09 06:18:14;;;;;;;3.33;1.10;;;16.80;96.30;;;;;;5045104;28;20478;-69
2021/07/09 06:20:43;;;;;;;2.40;0.83;;;16.70;96.20;;;;;;5034278;28;20445;-69
2021/07/09 06:23:10;;;;;;;5.27;0.87;;;16.60;96.10;;;;;;5049503;28;20950;-69
2021/07/09 06:25:43;;;;;;;2.33;0.80;;;16.50;96.50;;;;;;5042960;28;20434;-74
2021/07/09 06:28:10;;;;;;;3.60;1.13;;;16.50;96.70;;;;;;5050388;28;20924;-69
2021/07/09 06:30:37;;;;;;;6.83;1.57;;;16.50;96.80;;;;;;5040077;28;20484;-69
2021/07/09 06:33:08;;;;;;;3.00;1.20;;;16.50;97.30;;;;;;5035694;28;20544;-69
2021/07/09 06:35:36;;;;;;;2.17;1.00;;;16.50;97.50;;;;;;5035776;28;20437;-69
2021/07/09 06:38:03;;;;;;;1.90;0.83;;;16.50;97.30;;;;;;5037136;28;20865;-70
2021/07/09 06:40:36;;;;;;;1.93;0.70;;;16.60;96.90;;;;;;5027388;28;20433;-72
2021/07/09 06:43:04;;;;;;;1.80;0.70;;;16.50;97.00;;;;;;5035875;28;20516;-69
2021/07/09 06:45:33;;;;;;;1.60;0.60;;;16.50;97.20;;;;;;5048762;28;20476;-69
2021/07/09 06:48:02;;;;;;;1.80;0.80;;;16.50;97.40;;;;;;5047011;28;20445;-69
2021/07/09 06:50:31;;;;;;;2.10;0.70;;;16.50;98.00;;;;;;5034544;28;20491;-69
2021/07/09 06:53:04;;;;;;;1.70;0.70;;;16.60;97.90;;;;;;5046642;28;20504;-69
2021/07/09 06:55:43;;;;;;;5.83;0.90;;;16.60;98.00;;;;;;5033353;28;20437;-69
2021/07/09 06:58:11;;;;;;;2.50;0.80;;;16.60;97.80;;;;;;5034378;28;20525;-70
2021/07/09 07:00:45;;;;;;;1.97;0.80;;;16.60;97.80;;;;;;5038638;28;20449;-70
2021/07/09 07:03:20;;;;;;;1.70;0.80;;;16.60;97.50;;;;;;5051384;28;20440;-70
2021/07/09 07:05:48;;;;;;;2.00;1.00;;;16.50;97.80;;;;;;5052664;28;20493;-68
2021/07/09 07:08:16;;;;;;;2.40;0.90;;;16.50;97.10;;;;;;5051755;28;20429;-68
2021/07/09 07:10:46;;;;;;;1.90;1.30;;;16.50;97.90;;;;;;5040497;28;20478;-68
2021/07/09 07:13:17;;;;;;;2.20;1.00;;;16.50;97.60;;;;;;5050444;28;20499;-68
2021/07/09 07:15:44;;;;;;;2.10;1.20;;;16.40;97.60;;;;;;5037793;28;20476;-68
2021/07/09 07:18:13;;;;;;;1.80;1.23;;;16.40;97.60;;;;;;5043289;28;20472;-68
2021/07/09 07:20:42;;;;;;;2.30;1.40;;;16.40;97.90;;;;;;5052752;28;20498;-68
2021/07/09 07:23:12;;;;;;;2.90;1.00;;;16.40;98.40;;;;;;5051300;28;20845;-68
2021/07/09 07:25:40;;;;;;;2.53;1.80;;;16.50;98.10;;;;;;5054928;28;20473;-68
2021/07/09 07:28:08;;;;;;;4.10;1.40;;;16.50;98.30;;;;;;5054497;28;20528;-68
2021/07/09 07:30:38;;;;;;;2.27;0.93;;;16.50;98.70;;;;;;5055191;28;20480;-69
2021/07/09 07:33:10;;;;;;;1.97;1.00;;;16.50;98.60;;;;;;5055200;28;20472;-68
2021/07/09 07:35:37;;;;;;;2.50;1.40;;;16.50;98.70;;;;;;5055157;28;20437;-68
2021/07/09 07:38:05;;;;;;;1.83;0.90;;;16.60;98.90;;;;;;5055212;28;20468;-68
2021/07/09 07:40:36;;;;;;;2.37;1.27;;;16.70;99.00;;;;;;5055092;28;20528;-69
2021/07/09 07:43:04;;;;;;;2.63;1.27;;;16.70;98.90;;;;;;5054923;28;20469;-69
2021/07/09 07:45:35;;;;;;;2.00;1.47;;;16.80;98.40;;;;;;5054682;28;20437;-69
2021/07/09 07:48:03;;;;;;;2.30;1.53;;;16.80;98.20;;;;;;5054719;28;20531;-69
2021/07/09 07:50:30;;;;;;;2.77;2.03;;;16.80;98.50;;;;;;5054755;28;20512;-68
2021/07/09 07:52:57;;;;;;;2.50;1.80;;;16.80;98.50;;;;;;5054800;28;20472;-69
2021/07/09 07:55:24;;;;;;;2.53;1.37;;;16.70;97.70;;;;;;5054502;28;20567;-69
2021/07/09 07:57:54;;;;;;;2.30;1.20;;;16.70;97.80;;;;;;5054783;28;20445;-69
2021/07/09 08:00:23;;;;;;;3.30;1.33;;;16.60;97.70;;;;;;5054567;28;20433;-68
2021/07/09 08:02:50;;;;;;;5.40;1.73;;;16.50;98.30;;;;;;5054454;28;20504;-69
2021/07/09 08:05:17;;;;;;;2.80;1.53;;;16.50;97.90;;;;;;5054607;28;20875;-69
2021/07/09 08:07:46;;;;;;;2.40;1.70;;;16.40;98.10;;;;;;5054261;28;20437;-68
2021/07/09 08:10:18;;;;;;;2.77;2.00;;;16.40;98.70;;;;;;5054484;28;20468;-68
2021/07/09 08:12:45;;;;;;;2.40;1.17;;;16.50;98.90;;;;;;5054597;28;20465;-68
2021/07/09 08:15:14;;;;;;;4.53;2.07;;;16.50;98.40;;;;;;5054268;28;20567;-68
2021/07/09 08:17:45;;;;;;;2.67;1.77;;;16.40;98.70;;;;;;5054035;28;20556;-68
2021/07/09 08:20:20;;;;;;;3.73;1.63;;;16.50;99.00;;;;;;5054119;28;20514;-69
2021/07/09 08:22:49;;;;;;;2.93;1.97;;;16.40;98.80;;;;;;5054446;28;20540;-68
2021/07/09 08:25:17;;;;;;;4.87;2.33;;;16.40;99.00;;;;;;5054179;28;20476;-68
2021/07/09 08:27:44;;;;;;;3.30;2.27;;;16.40;99.30;;;;;;5054230;28;20477;-69
2021/07/09 08:30:14;;;;;;;4.13;2.23;;;16.30;98.70;;;;;;5054109;28;20529;-68
2021/07/09 08:32:41;;;;;;;3.90;2.17;;;16.40;99.10;;;;;;5044356;28;20525;-68
2021/07/09 08:35:08;;;;;;;3.40;2.20;;;16.40;99.10;;;;;;5032914;28;20862;-68
2021/07/09 08:37:35;;;;;;;4.37;2.40;;;16.40;99.10;;;;;;5032676;28;20469;-68
2021/07/09 08:40:03;;;;;;;2.43;1.60;;;16.50;99.30;;;;;;5032136;28;20802;-68
2021/07/09 08:42:29;;;;;;;9.07;1.93;;;16.50;98.90;;;;;;5046305;28;20623;-68
2021/07/09 08:44:56;;;;;;;3.63;1.93;;;16.50;99.00;;;;;;5053790;28;20520;-68
2021/07/09 08:47:29;;;;;;;5.87;2.10;;;16.50;99.30;;;;;;5053759;28;20477;-68
2021/07/09 08:50:00;;;;;;;3.53;2.00;;;16.50;98.90;;;;;;5053812;28;20525;-69
2021/07/09 08:52:29;;;;;;;3.23;1.80;;;16.50;99.10;;;;;;5053544;28;20524;-68
2021/07/09 08:54:56;;;;;;;2.50;1.80;;;16.50;99.20;;;;;;5053718;28;20893;-68
2021/07/09 08:57:23;;;;;;;5.07;1.97;;;16.50;99.60;;;;;;5053766;28;20528;-68
2021/07/09 08:59:50;;;;;;;2.87;1.80;;;16.50;99.50;;;;;;5053417;28;20480;-68
2021/07/09 09:02:27;;;;;;;3.00;2.30;;;16.60;99.50;;;;;;5053481;28;20526;-68
2021/07/09 09:04:55;;;;;;;2.50;1.83;;;16.50;99.30;;;;;;5053406;28;20443;-69
2021/07/09 09:07:28;;;;;;;3.40;2.50;;;16.60;99.30;;;;;;5053284;28;20432;-70
2021/07/09 09:09:57;;;;;;;3.13;2.30;;;16.60;98.60;;;;;;5053584;28;20437;-69
2021/07/09 09:12:24;;;;;;;2.90;2.40;;;16.50;98.70;;;;;;5053460;28;20950;-68
2021/07/09 09:14:52;;;;;;;3.10;2.27;;;16.60;98.90;;;;;;5053210;28;20524;-68
2021/07/09 09:17:32;;;;;;;3.10;1.97;;;16.60;99.10;;;;;;5053065;28;20468;-69
2021/07/09 09:20:14;;;;;;;4.43;2.47;;;16.60;98.50;;;;;;5052698;28;20436;-68
2021/07/09 09:23:02;;;;;;;3.23;2.10;;;16.70;99.10;;;;;;5053258;28;20433;-68
2021/07/09 09:25:31;;;;;;;2.80;2.20;;;16.70;98.60;;;;;;5053249;28;20523;-68
2021/07/09 09:28:07;;;;;;;3.20;1.93;;;16.70;98.90;;;;;;5052782;28;20990;-68
2021/07/09 09:30:36;;;;;;;2.60;1.70;;;16.70;98.80;;;;;;5053053;28;20447;-68
2021/07/09 09:33:08;;;;;;;2.60;1.70;;;16.80;99.10;;;;;;5047863;28;20533;-68
2021/07/09 09:35:37;;;;;;;4.87;2.50;;;16.90;99.40;;;;;;5052095;28;20484;-68
2021/07/09 09:38:07;;;;;;;3.13;1.90;;;17.00;99.20;;;;;;5053032;28;20433;-68
2021/07/09 09:40:36;;;;;;;4.13;2.33;;;17.00;99.20;;;;;;5053071;28;20527;-68
2021/07/09 09:43:08;;;;;;;2.63;2.00;;;17.00;97.90;;;;;;5053118;28;20511;-68
2021/07/09 09:45:36;;;;;;;2.90;2.20;;;16.90;98.00;;;;;;5053000;28;20524;-68
2021/07/09 09:48:12;;;;;;;4.97;2.30;;;17.00;98.30;;;;;;5053002;28;20539;-68
2021/07/09 09:50:45;;;;;;;4.00;2.83;;;17.10;98.40;;;;;;5053008;28;20445;-68
2021/07/09 09:53:13;;;;;;;2.60;1.80;;;17.20;98.10;;;;;;5052959;28;20525;-69
2021/07/09 09:55:40;;;;;;;2.93;2.20;;;17.20;96.60;;;;;;5052848;28;20531;-68
2021/07/09 09:58:12;;;;;;;3.07;2.43;;;17.20;96.90;;;;;;5052982;28;20519;-68
2021/07/09 10:00:43;;;;;;;2.50;1.70;;;17.30;97.60;;;;;;5052958;28;20433;-69
2021/07/09 10:03:11;;;;;;;3.03;2.37;;;17.40;97.40;;;;;;5034991;28;20532;-68
2021/07/09 10:05:40;;;;;;;4.07;2.33;;;17.40;97.40;;;;;;5032874;28;20879;-68
2021/07/09 10:08:12;;;;;;;3.90;2.70;;;17.50;97.40;;;;;;5032782;28;20445;-68
2021/07/09 10:10:40;;;;;;;2.57;2.00;;;17.60;97.00;;;;;;5032840;28;20473;-68
2021/07/09 10:13:13;;;;;;;4.47;2.20;;;17.60;96.60;;;;;;5032786;28;20472;-69
2021/07/09 10:15:41;;;;;;;2.80;2.00;;;17.50;96.40;;;;;;5032394;28;20485;-68
2021/07/09 10:18:13;;;;;;;4.50;2.30;;;17.60;96.40;;;;;;5032794;28;20477;-68
2021/07/09 10:20:42;;;;;;;3.80;2.27;;;17.60;96.40;;;;;;5032772;28;20488;-68
2021/07/09 10:23:10;;;;;;;3.80;2.13;;;17.60;95.20;;;;;;5032735;28;20482;-68
2021/07/09 10:25:39;;;;;;;2.90;2.23;;;17.60;95.90;;;;;;5032781;28;20557;-68
2021/07/09 10:28:07;;;;;;;3.20;2.30;;;17.70;95.80;;;;;;5032648;28;20525;-68
2021/07/09 10:30:38;;;;;;;3.27;2.07;;;17.70;95.60;;;;;;5032744;28;20441;-68
2021/07/09 10:33:31;;;;;;;2.93;1.77;;;17.70;95.50;;;;;;5036002;28;20520;-68
2021/07/09 10:35:58;;;;;;;4.40;2.07;;;17.70;94.70;;;;;;5030623;28;20920;-68
2021/07/09 10:38:36;;;;;;;3.80;2.20;;;17.80;94.70;;;;;;5036156;28;20841;-68
2021/07/09 10:41:17;;;;;;;4.23;2.63;;;17.80;94.70;;;;;;5036317;28;20852;-67
2021/07/09 10:44:09;;;;;;;3.60;2.20;;;17.90;94.70;;;;;;5036237;28;20460;-67
2021/07/09 10:46:41;;;;;;;2.33;1.73;;;18.00;93.80;;;;;;5036094;28;20438;-67
2021/07/09 10:49:47;;;;;;;3.23;1.93;;;18.00;94.30;;;;;;5036129;28;20536;-68
2021/07/09 10:52:48;;;;;;;3.00;2.20;;;18.00;94.90;;;;;;5035844;28;20983;-67
2021/07/09 10:55:49;;;;;;;4.90;2.33;;;18.00;94.00;;;;;;5036003;28;20975;-67
2021/07/09 10:58:41;;;;;;;6.40;2.47;;;18.00;93.70;;;;;;5032856;28;20532;-67
2021/07/09 11:01:23;;;;;;;3.20;2.23;;;18.00;92.90;;;;;;5035862;28;20438;-67
2021/07/09 11:04:07;;;;;;;4.00;2.07;;;18.00;93.20;;;;;;5035536;28;20532;-70
2021/07/09 11:06:41;;;;;;;3.67;1.73;;;18.10;93.40;;;;;;5035707;28;20951;-67
2021/07/09 11:09:09;;;;;;;3.90;2.10;;;18.10;93.20;;;;;;5035851;28;20450;-67
2021/07/09 11:11:43;;;;;;;2.50;1.80;;;18.20;93.00;;;;;;5035750;28;20476;-68
2021/07/09 11:14:12;;;;;;;3.57;2.37;;;18.20;93.20;;;;;;5035438;28;20471;-68
2021/07/09 11:16:40;;;;;;;3.93;2.00;;;18.30;92.90;;;;;;5035243;28;20577;-68
2021/07/09 11:19:10;;;;;;;6.37;2.20;;;18.30;92.90;;;;;;5035274;28;20521;-67
2021/07/09 11:21:57;;;;;;;5.07;2.20;;;18.30;92.90;;;;;;5035401;28;20945;-67
2021/07/09 11:24:27;;;;;;;3.33;2.10;;;18.40;93.60;;;;;;5036485;28;20521;-68
2021/07/09 11:26:59;;;;;;;2.60;1.40;;;18.40;93.70;;;;;;5034924;28;20480;-68
2021/07/09 11:29:29;;;;;;;5.27;3.67;;;18.50;93.40;;;;;;5051910;28;20440;-68
2021/07/09 11:31:58;;;;;;;4.93;2.50;;;18.50;93.50;;;;;;5054276;28;20528;-68
2021/07/09 11:34:28;;;;;;;2.70;2.30;;;18.60;93.60;;;;;;5035062;28;20484;-69
2021/07/09 11:36:58;;;;;;;2.17;1.60;;;18.60;92.60;;;;;;5035041;28;20525;-68
2021/07/09 11:39:27;;;;;;;2.60;1.90;;;18.60;92.40;;;;;;5034677;28;20532;-68
2021/07/09 11:42:03;;;;;;;2.47;1.53;;;18.70;92.40;;;;;;5034959;28;20525;-68
2021/07/09 11:44:32;;;;;;;2.67;2.07;;;18.80;92.10;;;;;;5033568;28;20505;-67
2021/07/09 11:47:02;;;;;;;3.93;2.07;;;18.90;92.60;;;;;;5034892;28;20480;-68
2021/07/09 11:49:31;;;;;;;2.47;1.87;;;18.90;93.10;;;;;;5034844;28;20521;-68
2021/07/09 11:52:03;;;;;;;4.77;2.50;;;19.00;92.60;;;;;;5034468;28;20470;-68
2021/07/09 11:54:34;;;;;;;3.03;2.03;;;19.00;91.60;;;;;;5035416;28;20529;-68
2021/07/09 11:57:05;;;;;;;2.93;1.90;;;19.10;91.60;;;;;;5054599;28;20440;-69
2021/07/09 11:59:33;;;;;;;5.73;2.00;;;19.20;92.20;;;;;;5054579;28;20524;-68
2021/07/09 12:02:08;;;;;;;3.07;1.90;;;19.40;92.40;;;;;;5054404;28;20536;-68
2021/07/09 12:04:37;;;;;;;4.13;1.90;;;19.60;92.30;;;;;;5054492;28;20523;-67
2021/07/09 12:07:37;;;;;;;2.93;1.80;;;19.90;91.60;;;;;;5054613;28;20472;-67
2021/07/09 12:10:10;;;;;;;2.40;1.80;;;20.10;90.30;;;;;;5054685;28;20481;-67
2021/07/09 12:12:39;;;;;;;3.30;1.97;;;20.20;90.50;;;;;;5054534;28;20441;-67
2021/07/09 12:15:09;;;;;;;3.23;1.77;;;20.30;89.70;;;;;;5053581;28;20560;-70
2021/07/09 12:17:38;;;;;;;3.47;2.00;;;20.20;85.60;;;;;;5033460;28;20894;-67
2021/07/09 12:20:11;;;;;;;2.50;1.67;;;20.30;89.40;;;;;;5034267;28;20529;-68
2021/07/09 12:22:41;;;;;;;2.70;1.57;;;20.40;88.10;;;;;;5046554;28;20990;-67
2021/07/09 12:25:11;;;;;;;1.90;1.30;;;20.60;89.30;;;;;;5053383;28;20958;-67
2021/07/09 12:27:39;;;;;;;2.70;1.40;;;20.70;87.00;;;;;;5053475;28;20528;-68
2021/07/09 12:30:09;;;;;;;3.30;1.47;;;20.90;87.60;;;;;;5053588;28;20982;-67
2021/07/09 12:32:50;;;;;;;3.77;1.57;;;21.10;87.90;;;;;;5053920;28;20565;-67
2021/07/09 12:35:18;;;;;;;2.70;1.87;;;21.50;84.90;;;;;;5042939;28;20594;-67
2021/07/09 12:37:57;;;;;;;2.40;1.40;;;21.70;83.50;;;;;;5033702;28;20517;-68
2021/07/09 12:40:33;;;;;;;2.40;1.23;;;22.00;84.80;;;;;;5033505;28;20441;-67
2021/07/09 12:43:23;;;;;;;2.03;1.30;;;22.30;78.10;;;;;;5033664;28;20433;-68
2021/07/09 12:45:58;;;;;;;7.03;1.20;;;22.50;79.10;;;;;;5041634;28;20532;-67
2021/07/09 12:48:33;;;;;;;2.87;1.73;;;22.70;73.80;;;;;;5053895;28;20442;-68
2021/07/09 12:51:00;;;;;;;4.43;2.17;;;22.70;73.30;;;;;;5041090;28;20528;-68
2021/07/09 12:53:28;;;;;;;2.47;1.83;;;23.00;77.50;;;;;;5033390;28;20533;-67
2021/07/09 12:55:55;;;;;;;2.77;1.40;;;23.30;78.10;;;;;;5032482;28;20489;-67
2021/07/09 12:58:26;;;;;;;3.83;1.90;;;23.50;74.20;;;;;;5033219;28;20848;-68
2021/07/09 13:00:55;;;;;;;2.80;1.53;;;23.90;74.90;;;;;;5033541;28;20481;-68
2021/07/09 13:03:29;;;;;;;3.33;1.80;;;24.20;74.90;;;;;;5033270;28;20434;-68